Terminal Aerodrome Forecast
Issued by NWS

Home | Current Version | Previous Version | Text Only | Print | Product List | Glossary On
Versions: 1 2 3 4 5 6 7 8 9 10 11 12 13 14 15 16 17 18
000
FTUS43 KDTX 230828 AAA
TAFYIP
TAF AMD
KYIP 230828Z 2308/2406 VRB03KT 3SM BR SKC
      TEMPO 2309/2312 1/2SM FG
     FM231330 15005KT P6SM SCT250=

USA.gov is the U.S. government's official web portal to all federal, state and local government web resources and services.